createdAt,value
2023-04-19T00:00:45.190Z,10.04
2023-04-19T00:05:44.640Z,10.08
2023-04-19T00:10:43.523Z,9.89
2023-04-19T00:15:42.444Z,9.76
2023-04-19T00:20:41.354Z,9.68
2023-04-19T00:25:40.514Z,9.81
2023-04-19T00:30:39.300Z,9.60
2023-04-19T00:35:42.398Z,9.58
2023-04-19T00:40:41.238Z,9.84
2023-04-19T00:45:40.184Z,9.88
2023-04-19T00:50:39.390Z,9.80
2023-04-19T00:55:41.221Z,9.98
2023-04-19T01:00:40.273Z,9.59
2023-04-19T01:05:39.426Z,9.64
2023-04-19T01:10:38.197Z,9.58
2023-04-19T01:15:36.969Z,9.52
2023-04-19T01:20:36.060Z,9.41
2023-04-19T01:25:35.966Z,9.49
2023-04-19T01:30:36.444Z,9.60
2023-04-19T01:35:35.232Z,9.56
2023-04-19T01:40:34.157Z,9.51
2023-04-19T01:45:34.108Z,9.65
2023-04-19T01:50:33.052Z,9.72
2023-04-19T01:55:31.834Z,9.61
2023-04-19T02:00:30.650Z,9.52
2023-04-19T02:05:29.491Z,9.67
2023-04-19T02:10:29.505Z,9.71
2023-04-19T02:15:28.418Z,9.60
2023-04-19T02:20:27.226Z,9.59
2023-04-19T02:25:26.099Z,9.52
2023-04-19T02:30:24.941Z,9.53
2023-04-19T02:35:23.854Z,9.56
2023-04-19T02:40:23.899Z,9.67
2023-04-19T02:45:23.067Z,9.56
2023-04-19T02:50:21.876Z,9.67
2023-04-19T02:55:22.583Z,9.15
2023-04-19T03:00:32.022Z,9.37
2023-04-19T03:05:37.908Z,9.45
2023-04-19T03:10:36.749Z,9.36
2023-04-19T03:15:35.578Z,9.27
2023-04-19T03:20:34.961Z,9.41
2023-04-19T03:25:33.890Z,8.88
2023-04-19T03:30:46.193Z,9.10
2023-04-19T03:35:45.717Z,9.19
2023-04-19T03:40:44.790Z,9.21
2023-04-19T03:45:46.684Z,9.03
2023-04-19T03:50:46.008Z,9.08
2023-04-19T03:55:48.211Z,9.05
2023-04-19T04:00:47.006Z,8.83
2023-04-19T04:05:47.133Z,8.94
2023-04-19T04:10:45.939Z,8.98
2023-04-19T04:15:45.642Z,9.02
2023-04-19T04:20:45.888Z,9.09
2023-04-19T04:25:46.220Z,9.00
2023-04-19T04:30:47.188Z,12.64
2023-04-19T04:35:46.406Z,13.26
2023-04-19T04:40:55.404Z,13.19
2023-04-19T04:45:55.716Z,12.99
2023-04-19T04:50:55.508Z,13.37
2023-04-19T04:55:54.591Z,13.39
2023-04-19T05:00:53.788Z,13.08
2023-04-19T05:05:53.546Z,13.17
2023-04-19T05:10:52.882Z,13.20
2023-04-19T05:15:54.730Z,13.47
2023-04-19T05:20:53.876Z,11.05
2023-04-19T05:25:57.103Z,10.38
2023-04-19T05:30:59.139Z,10.00
2023-04-19T05:36:03.248Z,9.06
2023-04-19T05:41:03.533Z,8.59
2023-04-19T05:46:02.540Z,8.34
2023-04-19T05:51:01.733Z,8.38
2023-04-19T05:56:26.576Z,8.38
2023-04-19T06:01:25.756Z,8.53
2023-04-19T06:06:25.187Z,8.61
2023-04-19T06:11:31.486Z,8.55
2023-04-19T06:16:34.507Z,8.52
2023-04-19T06:21:34.012Z,8.70
2023-04-19T06:26:33.114Z,8.69
2023-04-19T06:31:33.565Z,8.81
2023-04-19T06:36:32.630Z,9.12
2023-04-19T06:41:31.503Z,9.06
2023-04-19T06:46:30.773Z,9.13
2023-04-19T06:51:29.598Z,9.36
2023-04-19T06:56:42.312Z,8.80
2023-04-19T07:01:41.439Z,8.51
2023-04-19T07:06:40.679Z,9.27
2023-04-19T07:11:39.618Z,9.55
2023-04-19T07:16:38.389Z,9.69
2023-04-19T07:21:38.838Z,9.18
2023-04-19T07:26:37.659Z,9.44
2023-04-19T07:31:36.976Z,10.00
2023-04-19T07:36:37.123Z,9.80
2023-04-19T07:41:36.372Z,9.97
2023-04-19T07:46:35.767Z,9.64
2023-04-19T07:51:34.698Z,9.38
2023-04-19T07:56:36.207Z,9.55
2023-04-19T08:01:35.780Z,8.82
2023-04-19T08:06:34.896Z,9.86
2023-04-19T08:11:33.818Z,10.31
2023-04-19T08:17:14.547Z,10.64
2023-04-19T08:21:51.486Z,10.78
2023-04-19T08:26:54.051Z,11.06
2023-04-19T08:31:53.160Z,10.03
2023-04-19T08:37:03.349Z,9.70
2023-04-19T08:42:13.454Z,10.31
2023-04-19T08:47:31.167Z,10.35
2023-04-19T08:52:39.314Z,9.82
2023-04-19T08:57:43.967Z,10.40
2023-04-19T09:02:48.284Z,10.43
2023-04-19T09:07:48.289Z,11.10
2023-04-19T09:13:04.809Z,10.97
2023-04-19T09:18:06.955Z,10.89
2023-04-19T09:23:07.778Z,11.16
2023-04-19T09:28:14.700Z,10.94
2023-04-19T09:33:13.692Z,11.05
2023-04-19T09:38:12.999Z,11.10
2023-04-19T09:43:40.421Z,11.47
2023-04-19T09:48:33.955Z,11.59
2023-04-19T09:53:36.785Z,11.35
2023-04-19T09:58:46.856Z,10.99
2023-04-19T10:03:50.409Z,10.98
2023-04-19T10:08:51.186Z,11.21
2023-04-19T10:13:58.917Z,11.35
2023-04-19T10:18:58.676Z,11.18
2023-04-19T10:23:58.655Z,10.99
2023-04-19T10:28:57.529Z,11.32
2023-04-19T10:33:57.827Z,11.14
2023-04-19T10:38:57.073Z,10.75
2023-04-19T10:43:56.176Z,10.96
2023-04-19T10:48:58.853Z,10.84
2023-04-19T10:53:57.705Z,11.01
2023-04-19T10:59:02.909Z,11.38
2023-04-19T11:04:02.009Z,11.05
2023-04-19T11:09:03.237Z,11.37
2023-04-19T11:14:03.483Z,11.87
2023-04-19T11:19:02.213Z,11.77
2023-04-19T11:24:11.161Z,11.94
2023-04-19T11:29:10.276Z,12.01
2023-04-19T11:34:09.183Z,12.56
2023-04-19T11:39:08.227Z,11.95
2023-04-19T11:44:20.302Z,11.50
2023-04-19T11:49:33.363Z,11.58
2023-04-19T11:54:33.908Z,11.15
2023-04-19T11:59:35.437Z,11.11
2023-04-19T12:04:35.255Z,11.44
2023-04-19T12:09:36.492Z,11.39
2023-04-19T12:14:35.534Z,11.26
2023-04-19T12:19:52.465Z,11.37
2023-04-19T12:24:53.313Z,11.82
2023-04-19T12:29:52.223Z,12.10
2023-04-19T12:34:51.350Z,11.87
2023-04-19T12:39:50.072Z,11.64
2023-04-19T12:44:48.974Z,11.63
2023-04-19T12:49:47.894Z,11.53
2023-04-19T12:54:47.002Z,11.72
2023-04-19T12:59:45.875Z,11.87
2023-04-19T13:04:44.987Z,11.88
2023-04-19T13:09:43.844Z,11.69
2023-04-19T13:14:42.563Z,11.80
2023-04-19T13:19:41.546Z,11.90
2023-04-19T13:24:40.466Z,11.94
2023-04-19T13:29:39.501Z,12.41
2023-04-19T13:34:40.315Z,13.46
2023-04-19T13:39:39.366Z,14.20
2023-04-19T13:44:38.368Z,13.01
2023-04-19T13:49:37.193Z,12.29
2023-04-19T13:54:36.263Z,11.37
2023-04-19T13:59:35.023Z,11.42
2023-04-19T14:04:33.916Z,11.53
2023-04-19T14:09:32.755Z,11.43
2023-04-19T14:14:32.483Z,11.31
2023-04-19T14:19:31.737Z,10.39
2023-04-19T14:24:30.837Z,9.46
2023-04-19T14:29:29.744Z,9.41
2023-04-19T14:34:28.800Z,9.53
2023-04-19T14:39:27.562Z,9.60
2023-04-19T14:44:26.488Z,9.39
2023-04-19T14:49:25.343Z,9.13
2023-04-19T14:54:24.216Z,8.93
2023-04-19T14:59:23.033Z,8.78
2023-04-19T15:04:21.930Z,9.05
2023-04-19T15:09:20.853Z,9.10
2023-04-19T15:14:19.970Z,9.05
2023-04-19T15:19:19.052Z,8.82
2023-04-19T15:24:18.385Z,8.84
2023-04-19T15:29:17.366Z,8.45
2023-04-19T15:34:16.320Z,8.27
2023-04-19T15:39:15.553Z,8.22
2023-04-19T15:44:14.443Z,8.07
2023-04-19T15:49:13.565Z,8.48
2023-04-19T15:54:14.592Z,8.78
2023-04-19T15:59:13.398Z,8.66
2023-04-19T16:04:12.454Z,9.17
2023-04-19T16:09:11.518Z,8.73
2023-04-19T16:14:10.329Z,8.88
2023-04-19T16:19:09.035Z,8.77
2023-04-19T16:24:08.060Z,8.51
2023-04-19T16:29:07.204Z,8.97
2023-04-19T16:34:06.172Z,9.03
2023-04-19T16:39:05.098Z,9.10
2023-04-19T16:44:04.356Z,9.22
2023-04-19T16:49:03.413Z,9.17
2023-04-19T16:54:02.122Z,9.04
2023-04-19T16:59:01.466Z,8.98
2023-04-19T17:04:00.633Z,9.28
2023-04-19T17:09:05.186Z,9.17
2023-04-19T17:14:04.696Z,9.07
2023-04-19T17:19:03.453Z,8.82
2023-04-19T17:24:02.215Z,8.83
2023-04-19T17:29:02.112Z,8.28
2023-04-19T17:34:01.258Z,8.77
2023-04-19T17:39:00.152Z,8.76
2023-04-19T17:43:58.959Z,8.43
2023-04-19T17:48:57.890Z,8.57
2023-04-19T17:53:56.700Z,8.56
2023-04-19T17:58:55.909Z,8.48
2023-04-19T18:03:54.811Z,8.48
2023-04-19T18:08:53.750Z,8.56
2023-04-19T18:13:52.762Z,8.59
2023-04-19T18:18:51.719Z,8.19
2023-04-19T18:23:52.436Z,8.01
2023-04-19T18:28:51.206Z,8.04
2023-04-19T18:33:49.988Z,7.72
2023-04-19T18:38:48.734Z,7.77
2023-04-19T18:44:00.727Z,7.73
2023-04-19T18:49:06.843Z,7.54
2023-04-19T18:54:05.718Z,7.61
2023-04-19T18:59:04.740Z,7.24
2023-04-19T19:09:06.550Z,7.06
2023-04-19T19:14:05.635Z,6.59
2023-04-19T19:19:07.729Z,6.91
2023-04-19T19:24:06.846Z,6.78
2023-04-19T19:29:06.810Z,7.37
2023-04-19T19:34:22.724Z,6.35
2023-04-19T19:39:24.732Z,6.50
2023-04-19T19:45:13.906Z,6.58
2023-04-19T19:51:00.146Z,6.30
2023-04-19T19:55:33.224Z,6.30
2023-04-19T20:00:45.138Z,6.52
2023-04-19T20:05:46.987Z,6.33
2023-04-19T20:10:45.955Z,6.58
2023-04-19T20:15:47.275Z,6.75
2023-04-19T20:20:46.475Z,6.70
2023-04-19T20:25:45.312Z,7.21
2023-04-19T20:30:44.125Z,6.71
2023-04-19T20:35:44.066Z,6.59
2023-04-19T20:40:44.123Z,6.49
2023-04-19T20:45:42.935Z,6.75
2023-04-19T20:50:42.429Z,6.61
2023-04-19T20:55:42.210Z,6.90
2023-04-19T21:00:41.086Z,8.12
2023-04-19T21:05:40.751Z,7.04
2023-04-19T21:10:39.510Z,6.37
2023-04-19T21:15:38.316Z,6.41
2023-04-19T21:20:37.859Z,6.72
2023-04-19T21:25:37.160Z,6.36
2023-04-19T21:30:40.731Z,6.47
2023-04-19T21:35:39.490Z,6.46
2023-04-19T21:40:38.224Z,6.25
2023-04-19T21:45:36.928Z,6.50
2023-04-19T21:50:35.757Z,6.24
2023-04-19T21:55:34.629Z,6.30
2023-04-19T22:00:33.357Z,6.20
2023-04-19T22:05:32.229Z,6.21
2023-04-19T22:10:33.756Z,5.98
2023-04-19T22:15:32.776Z,5.99
2023-04-19T22:20:32.199Z,6.18
2023-04-19T22:25:30.968Z,6.07
2023-04-19T22:30:29.926Z,5.53
2023-04-19T22:35:28.681Z,5.82
2023-04-19T22:40:27.635Z,6.28
2023-04-19T22:45:26.509Z,5.85
2023-04-19T22:50:25.277Z,5.92
2023-04-19T22:55:24.185Z,6.09
2023-04-19T23:00:22.975Z,5.97
2023-04-19T23:05:21.913Z,5.88
2023-04-19T23:10:21.681Z,6.13
2023-04-19T23:15:21.259Z,6.37
2023-04-19T23:20:20.110Z,6.09
2023-04-19T23:25:18.859Z,6.28
2023-04-19T23:30:17.995Z,6.13
2023-04-19T23:35:16.763Z,6.15
2023-04-19T23:40:15.701Z,6.23
2023-04-19T23:45:14.535Z,6.28
2023-04-19T23:50:13.289Z,6.09
2023-04-19T23:55:12.702Z,6.14
